Time;durP1;ratioP1;P1;durP2;ratioP2;P2;SDS_P1;SDS_P2;PMS_P1;PMS_P2;Temp;Humidity;BMP_temperature;BMP_pressure;BME280_temperature;BME280_humidity;BME280_pressure;Samples;Min_cycle;Max_cycle;Signal;HPM_P1;HPM_P2
2021/11/09 00:01:41;;;;;;;9.88;3.00;;;;;15.50;100738.00;;;;5069025;28;20491;-75
2021/11/09 00:04:11;;;;;;;15.25;2.58;;;;;15.50;100736.00;;;;5069667;28;20399;-76
2021/11/09 00:06:43;;;;;;;6.43;2.15;;;;;15.40;100736.00;;;;5069291;28;20199;-76
2021/11/09 00:09:17;;;;;;;11.82;2.15;;;;;15.40;100756.00;;;;5069238;28;20040;-76
2021/11/09 00:11:48;;;;;;;16.00;2.20;;;;;15.30;100735.00;;;;5069778;28;20052;-76
2021/11/09 00:14:17;;;;;;;7.38;2.05;;;;;15.30;100753.00;;;;5068951;28;20048;-76
2021/11/09 00:16:47;;;;;;;15.52;2.25;;;;;15.20;100757.00;;;;5068570;28;20071;-76
2021/11/09 00:19:16;;;;;;;9.63;2.13;;;;;15.30;100754.00;;;;5069491;28;20111;-75
2021/11/09 00:21:46;;;;;;;9.35;1.85;;;;;15.30;100733.00;;;;5066667;28;20055;-76
2021/11/09 00:24:15;;;;;;;8.95;2.05;;;;;15.20;100774.00;;;;5069382;28;20072;-76
2021/11/09 00:26:46;;;;;;;4.10;1.42;;;;;15.20;100785.00;;;;5069138;28;20124;-76
2021/11/09 00:29:16;;;;;;;12.45;1.98;;;;;15.10;100769.00;;;;5068990;28;20033;-76
2021/11/09 00:31:46;;;;;;;9.77;1.75;;;;;15.10;100763.00;;;;5068992;28;20064;-76
2021/11/09 00:34:16;;;;;;;11.27;2.30;;;;;15.10;100788.00;;;;5068692;28;20049;-75
2021/11/09 00:36:45;;;;;;;7.68;1.67;;;;;15.00;100764.00;;;;5069051;28;20570;-76
2021/11/09 00:39:15;;;;;;;12.52;2.03;;;;;14.90;100767.00;;;;5069347;28;20106;-76
2021/11/09 00:41:45;;;;;;;7.22;1.55;;;;;14.90;100782.00;;;;5068701;28;20183;-75
2021/11/09 00:44:14;;;;;;;715.00;99.03;;;;;14.80;100761.00;;;;5069107;28;20090;-75
2021/11/09 00:46:44;;;;;;;8.95;2.00;;;;;14.70;100771.00;;;;5068110;28;20044;-75
2021/11/09 00:49:14;;;;;;;13.45;2.00;;;;;14.70;100783.00;;;;5068782;28;20036;-76
2021/11/09 00:51:46;;;;;;;15.52;2.15;;;;;14.70;100774.00;;;;5068705;28;20052;-75
2021/11/09 00:54:16;;;;;;;13.63;1.80;;;;;14.60;100784.00;;;;5068552;28;20044;-76
2021/11/09 00:56:47;;;;;;;1239.18;181.48;;;;;14.60;100779.00;;;;5068609;28;20117;-75
2021/11/09 00:59:16;;;;;;;867.40;94.35;;;;;14.60;100784.00;;;;5068515;28;20121;-76
2021/11/09 01:01:46;;;;;;;1955.70;452.70;;;;;14.60;100778.00;;;;5068696;28;20471;-76
2021/11/09 01:04:16;;;;;;;837.38;101.90;;;;;14.60;100800.00;;;;5068071;28;20044;-76
2021/11/09 01:06:46;;;;;;;11.50;2.08;;;;;14.50;100783.00;;;;5068859;28;20079;-76
2021/11/09 01:09:15;;;;;;;11.45;4.93;;;;;14.50;100789.00;;;;5068441;28;20098;-76
2021/11/09 01:11:45;;;;;;;1999.90;999.90;;;;;14.40;100797.00;;;;5068248;28;20037;-76
2021/11/09 01:14:16;;;;;;;;;;;;;14.40;100803.00;;;;5068888;28;20064;-75
2021/11/09 01:16:46;;;;;;;836.90;117.00;;;;;14.40;100797.00;;;;5068070;28;20400;-76
2021/11/09 01:19:16;;;;;;;190.50;17.60;;;;;14.30;100787.00;;;;5068909;28;20507;-76
2021/11/09 01:21:46;;;;;;;496.73;37.65;;;;;14.30;100788.00;;;;5067975;28;20052;-75
2021/11/09 01:24:17;;;;;;;1999.90;237.38;;;;;14.30;100776.00;;;;5068131;28;20048;-76
2021/11/09 01:26:48;;;;;;;1999.90;238.10;;;;;14.20;100780.00;;;;5068142;28;20040;-73
2021/11/09 01:29:17;;;;;;;1536.50;181.60;;;;;14.20;100797.00;;;;5067989;28;20120;-76
2021/11/09 01:31:48;;;;;;;1357.85;150.70;;;;;14.30;100769.00;;;;5068484;28;20471;-76
2021/11/09 01:34:17;;;;;;;1999.90;280.83;;;;;14.20;100778.00;;;;5068241;28;20134;-75
2021/11/09 01:36:47;;;;;;;890.88;145.98;;;;;14.20;100769.00;;;;5067710;28;20044;-75
2021/11/09 01:39:17;;;;;;;1999.90;496.65;;;;;14.10;100778.00;;;;5050170;28;20060;-75
2021/11/09 01:41:47;;;;;;;1999.90;378.23;;;;;14.10;100767.00;;;;5067026;28;20533;-75
2021/11/09 01:44:17;;;;;;;331.00;24.15;;;;;14.10;100768.00;;;;5067208;28;20045;-75
2021/11/09 01:46:46;;;;;;;27.67;2.25;;;;;14.00;100789.00;;;;5067031;28;20149;-75
2021/11/09 01:49:16;;;;;;;1999.90;229.13;;;;;14.00;100790.00;;;;5067563;28;20071;-75
2021/11/09 01:51:46;;;;;;;710.08;43.05;;;;;13.90;100779.00;;;;5067539;28;20079;-75
2021/11/09 01:54:16;;;;;;;1999.90;404.13;;;;;13.90;100775.00;;;;5067423;28;20044;-75
2021/11/09 01:56:46;;;;;;;1999.90;295.52;;;;;13.90;100788.00;;;;5067644;28;20048;-75
2021/11/09 01:59:16;;;;;;;540.47;31.20;;;;;13.90;100776.00;;;;5067646;28;20113;-75
2021/11/09 02:01:46;;;;;;;6.45;1.42;;;;;13.90;100768.00;;;;5067066;28;20044;-75
2021/11/09 02:04:16;;;;;;;14.60;1.90;;;;;13.90;100780.00;;;;5068312;28;20106;-75
2021/11/09 02:06:46;;;;;;;12.32;1.92;;;;;13.80;100801.00;;;;5067209;28;20128;-75
2021/11/09 02:09:18;;;;;;;13.90;2.15;;;;;13.90;100792.00;;;;5067205;28;20534;-75
2021/11/09 02:11:49;;;;;;;10.98;1.42;;;;;13.80;100792.00;;;;5067338;28;20094;-74
2021/11/09 02:14:19;;;;;;;1999.90;306.60;;;;;13.80;100769.00;;;;5067244;28;20041;-75
2021/11/09 02:16:51;;;;;;;1999.90;314.05;;;;;13.70;100791.00;;;;5048845;28;20067;-75
2021/11/09 02:19:21;;;;;;;7.30;1.30;;;;;13.70;100774.00;;;;5067151;28;20565;-75
2021/11/09 02:21:53;;;;;;;420.08;41.25;;;;;13.70;100800.00;;;;5067271;28;20051;-74
2021/11/09 02:24:22;;;;;;;464.25;38.60;;;;;13.70;100794.00;;;;5067253;28;20834;-75
2021/11/09 02:26:52;;;;;;;673.08;284.38;;;;;13.70;100787.00;;;;5067443;28;20036;-75
2021/11/09 02:29:21;;;;;;;1999.90;277.85;;;;;13.70;100794.00;;;;5067075;28;20049;-75
2021/11/09 02:31:52;;;;;;;6.90;1.48;;;;;13.80;100785.00;;;;5067527;28;20538;-75
2021/11/09 02:34:21;;;;;;;18.20;1.55;;;;;13.70;100781.00;;;;5066943;28;20052;-75
2021/11/09 02:36:52;;;;;;;186.02;10.40;;;;;13.60;100760.00;;;;5048861;28;20045;-75
2021/11/09 02:39:21;;;;;;;6.25;1.30;;;;;13.60;100763.00;;;;5066719;28;20503;-75
2021/11/09 02:41:51;;;;;;;756.55;42.40;;;;;13.60;100777.00;;;;5067096;28;20114;-75
2021/11/09 02:44:23;;;;;;;15.48;2.25;;;;;13.60;100785.00;;;;5067203;28;20070;-75
2021/11/09 02:46:57;;;;;;;1556.32;200.02;;;;;13.60;100770.00;;;;5067171;28;20435;-76
2021/11/09 02:49:41;;;;;;;8.27;1.40;;;;;13.60;100784.00;;;;5066478;28;20045;-75
2021/11/09 02:52:11;;;;;;;1138.65;505.42;;;;;13.60;100765.00;;;;5067221;28;20049;-75
2021/11/09 02:54:44;;;;;;;714.63;195.27;;;;;13.60;100764.00;;;;5067294;28;20075;-75
2021/11/09 02:58:02;;;;;;;55.05;6.80;;;;;13.70;100781.00;;;;5067265;28;20418;-75
2021/11/09 03:02:47;;;;;;;1999.90;438.10;;;;;13.70;100778.00;;;;5066632;28;20053;-75
2021/11/09 03:08:40;;;;;;;1375.57;299.02;;;;;13.60;100765.00;;;;5066572;28;20040;-75
2021/11/09 03:11:06;;;;;;;336.70;27.23;;;;;13.60;100752.00;;;;5066767;28;20040;-75
2021/11/09 03:13:37;;;;;;;955.25;220.00;;;;;13.70;100772.00;;;;5067111;28;20044;-75
2021/11/09 03:16:10;;;;;;;1987.07;435.08;;;;;13.70;100761.00;;;;5066789;28;20094;-75
2021/11/09 03:18:46;;;;;;;1572.53;359.70;;;;;13.70;100739.00;;;;5067123;28;20036;-75
2021/11/09 03:44:09;;;;;;;653.97;155.55;;;;;12.90;100728.00;;;;5070122;28;20044;-75
2021/11/09 03:46:30;;;;;;;862.75;144.00;;;;;12.70;100739.00;;;;5070111;28;20040;-75
2021/11/09 03:49:01;;;;;;;1931.68;293.50;;;;;12.70;100717.00;;;;5070791;28;20064;-75
2021/11/09 03:51:32;;;;;;;4.65;1.10;;;;;12.70;100736.00;;;;5070083;28;20040;-75
2021/11/09 03:54:04;;;;;;;6.28;1.10;;;;;12.70;100703.00;;;;5069571;28;20040;-75
2021/11/09 03:57:02;;;;;;;943.95;126.32;;;;;12.70;100724.00;;;;5069965;28;20040;-75
2021/11/09 04:04:49;;;;;;;213.70;13.20;;;;;12.60;100722.00;;;;5069508;28;20077;-75
2021/11/09 05:01:12;;;;;;;453.13;26.40;;;;;12.40;100683.00;;;;5068704;28;20640;-75
2021/11/09 05:09:31;;;;;;;538.20;167.18;;;;;12.20;100666.00;;;;5068488;28;20079;-75
2021/11/09 05:12:02;;;;;;;517.15;70.00;;;;;12.10;100655.00;;;;5068250;28;20114;-75
2021/11/09 05:14:32;;;;;;;1999.90;473.90;;;;;12.10;100672.00;;;;5068393;28;20668;-74
2021/11/09 05:17:02;;;;;;;1166.75;120.97;;;;;12.00;100660.00;;;;5068455;28;20036;-75
2021/11/09 05:19:32;;;;;;;1727.90;325.33;;;;;12.10;100660.00;;;;5068325;28;20049;-74
2021/11/09 05:22:02;;;;;;;6.88;1.17;;;;;12.10;100681.00;;;;5068227;28;20128;-75
2021/11/09 05:24:31;;;;;;;8.00;1.50;;;;;12.10;100680.00;;;;5068406;28;20044;-74
2021/11/09 05:27:01;;;;;;;7.50;1.27;;;;;12.20;100673.00;;;;5068713;28;20040;-75
2021/11/09 05:29:31;;;;;;;42.55;2.60;;;;;12.10;100664.00;;;;5068647;28;20615;-74
2021/11/09 05:32:01;;;;;;;341.83;84.72;;;;;12.00;100682.00;;;;5067983;28;20121;-75
2021/11/09 05:34:31;;;;;;;262.23;22.25;;;;;11.90;100694.00;;;;5068515;28;20059;-75
2021/11/09 05:37:01;;;;;;;1454.47;114.43;;;;;11.90;100664.00;;;;5067805;28;20051;-75
2021/11/09 05:42:01;;;;;;;90.57;4.93;;;;;11.80;100660.00;;;;5067930;28;20044;-75
2021/11/09 05:44:30;;;;;;;1531.45;231.55;;;;;11.70;100686.00;;;;5067504;28;20048;-75
2021/11/09 05:47:00;;;;;;;289.63;28.10;;;;;11.70;100683.00;;;;5067776;28;20036;-75
2021/11/09 05:49:30;;;;;;;1011.15;305.88;;;;;11.70;100694.00;;;;5067889;28;20043;-75
2021/11/09 05:52:01;;;;;;;904.05;364.17;;;;;11.70;100698.00;;;;5068290;28;20045;-75
2021/11/09 05:54:31;;;;;;;1587.87;157.30;;;;;11.80;100690.00;;;;5067292;28;20044;-75
2021/11/09 05:57:01;;;;;;;1538.38;149.43;;;;;11.80;100700.00;;;;5068113;28;20438;-75
2021/11/09 05:59:30;;;;;;;1431.38;389.60;;;;;11.70;100682.00;;;;5067595;28;20048;-74
2021/11/09 06:02:01;;;;;;;1999.90;255.80;;;;;11.70;100694.00;;;;5049340;28;20049;-75
2021/11/09 06:04:31;;;;;;;671.60;137.50;;;;;11.60;100704.00;;;;5066968;28;20465;-74
2021/11/09 06:07:01;;;;;;;289.38;69.95;;;;;11.60;100672.00;;;;5067492;28;20048;-75
2021/11/09 06:09:31;;;;;;;1999.90;369.02;;;;;11.60;100684.00;;;;5067448;28;20852;-75
2021/11/09 06:12:01;;;;;;;66.95;21.23;;;;;11.60;100697.00;;;;5067813;28;20044;-75
2021/11/09 06:14:30;;;;;;;13.07;1.70;;;;;11.60;100658.00;;;;5067453;28;20044;-75
2021/11/09 06:16:59;;;;;;;423.90;96.63;;;;;11.50;100675.00;;;;5067908;28;20384;-75
2021/11/09 06:19:29;;;;;;;865.75;89.20;;;;;11.50;100655.00;;;;5067186;28;20048;-74
2021/11/09 06:22:00;;;;;;;787.40;146.70;;;;;11.60;100663.00;;;;5066553;28;20049;-75
2021/11/09 06:24:30;;;;;;;1999.90;601.50;;;;;11.50;100671.00;;;;5049819;28;20121;-75
2021/11/09 06:27:00;;;;;;;115.72;45.95;;;;;11.50;100660.00;;;;5067214;28;20052;-75
2021/11/09 06:29:29;;;;;;;105.50;9.15;;;;;11.50;100679.00;;;;5066998;28;20053;-74
2021/11/09 06:32:00;;;;;;;10.60;1.35;;;;;11.40;100661.00;;;;5067253;28;20048;-76
2021/11/09 06:34:29;;;;;;;5.20;1.30;;;;;11.50;100680.00;;;;5066465;28;20135;-75
2021/11/09 06:36:58;;;;;;;80.68;9.45;;;;;11.40;100658.00;;;;5067474;28;20052;-75
2021/11/09 06:39:28;;;;;;;112.80;18.15;;;;;11.40;100658.00;;;;5067446;28;20507;-75
2021/11/09 06:41:58;;;;;;;31.77;2.70;;;;;11.50;100676.00;;;;5066867;28;20032;-75
2021/11/09 06:44:27;;;;;;;242.32;24.17;;;;;11.40;100668.00;;;;5067445;28;20051;-75
2021/11/09 06:46:56;;;;;;;286.08;22.17;;;;;11.30;100661.00;;;;5066775;28;20033;-75
2021/11/09 06:49:26;;;;;;;119.90;16.98;;;;;11.30;100668.00;;;;5067318;28;20051;-75
2021/11/09 06:51:56;;;;;;;10.07;2.53;;;;;11.30;100670.00;;;;5066868;28;20040;-75
2021/11/09 06:54:25;;;;;;;203.70;20.10;;;;;11.20;100671.00;;;;5048816;28;20048;-75
2021/11/09 06:56:55;;;;;;;297.05;41.83;;;;;11.20;100689.00;;;;5066936;28;20499;-75
2021/11/09 06:59:25;;;;;;;9.18;1.85;;;;;11.30;100681.00;;;;5066581;28;20044;-75
2021/11/09 07:01:58;;;;;;;1999.90;222.13;;;;;11.30;100660.00;;;;5066177;28;20602;-75
2021/11/09 07:04:29;;;;;;;288.23;88.25;;;;;11.30;100671.00;;;;5066843;28;20040;-75
2021/11/09 07:06:59;;;;;;;1121.55;82.68;;;;;11.20;100696.00;;;;5066768;28;20056;-75
2021/11/09 07:09:30;;;;;;;1999.90;999.90;;;;;11.20;100677.00;;;;5066731;28;20048;-75
2021/11/09 07:12:00;;;;;;;1999.90;999.90;;;;;11.20;100697.00;;;;5066498;28;20045;-75
2021/11/09 07:14:29;;;;;;;1829.95;819.95;;;;;11.10;100686.00;;;;5066847;28;20182;-75
2021/11/09 07:16:59;;;;;;;1999.90;999.90;;;;;11.10;100669.00;;;;5066610;28;20048;-75
2021/11/09 07:19:28;;;;;;;1999.90;321.90;;;;;11.20;100674.00;;;;5066624;28;20048;-75
2021/11/09 07:21:58;;;;;;;1400.72;317.90;;;;;11.20;100681.00;;;;5066750;28;20151;-75
2021/11/09 07:24:31;;;;;;;4.00;1.52;;;;;11.20;100665.00;;;;5066103;28;20518;-76
2021/11/09 07:27:01;;;;;;;1519.72;408.48;;;;;11.20;100676.00;;;;5067459;28;20045;-75
2021/11/09 07:29:30;;;;;;;1114.00;559.92;;;;;11.10;100665.00;;;;5066815;28;20052;-75
2021/11/09 07:32:00;;;;;;;23.33;13.60;;;;;11.00;100655.00;;;;5066737;28;20594;-75
2021/11/09 07:34:30;;;;;;;10.88;2.00;;;;;11.00;100681.00;;;;5066229;28;20423;-75
2021/11/09 07:36:59;;;;;;;8.90;2.03;;;;;11.10;100659.00;;;;5066547;28;20129;-76
2021/11/09 07:39:29;;;;;;;5.70;2.20;;;;;11.00;100659.00;;;;5066730;28;20064;-73
2021/11/09 07:41:59;;;;;;;1999.90;999.90;;;;;11.00;100667.00;;;;5066905;28;20656;-73
2021/11/09 07:44:28;;;;;;;1999.90;999.90;;;;;11.00;100676.00;;;;5066746;28;20091;-73
2021/11/09 07:46:58;;;;;;;1999.90;999.90;;;;;11.10;100692.00;;;;5048260;28;20584;-73
2021/11/09 07:49:28;;;;;;;16.73;14.55;;;;;11.10;100695.00;;;;5066364;28;20068;-76
2021/11/09 07:51:59;;;;;;;30.10;28.05;;;;;10.90;100700.00;;;;5066488;28;20119;-75
2021/11/09 07:54:33;;;;;;;68.28;63.40;;;;;11.00;100692.00;;;;5065776;28;20061;-75
2021/11/09 07:57:14;;;;;;;13.60;5.05;;;;;11.00;100706.00;;;;5066560;28;20444;-75
2021/11/09 08:00:06;;;;;;;9.32;2.90;;;;;11.00;100712.00;;;;5065947;28;20769;-75
2021/11/09 08:02:48;;;;;;;6.30;1.83;;;;;10.90;100720.00;;;;5066039;28;20131;-76
2021/11/09 08:05:18;;;;;;;798.45;154.95;;;;;10.80;100728.00;;;;5066073;28;20044;-75
2021/11/09 08:07:53;;;;;;;713.20;148.07;;;;;10.80;100734.00;;;;5066348;28;20043;-75
2021/11/09 08:10:23;;;;;;;759.50;243.13;;;;;10.80;100730.00;;;;5066372;28;20044;-76
2021/11/09 08:12:53;;;;;;;612.13;94.65;;;;;10.80;100751.00;;;;5066219;28;20507;-75
2021/11/09 08:15:22;;;;;;;1999.90;999.90;;;;;10.80;100722.00;;;;5068957;28;20174;-76
2021/11/09 08:17:52;;;;;;;542.03;69.82;;;;;10.80;100734.00;;;;5069743;28;20392;-76
2021/11/09 08:20:22;;;;;;;559.08;128.07;;;;;10.80;100752.00;;;;5051991;28;20037;-75
2021/11/09 08:22:51;;;;;;;995.72;462.00;;;;;10.90;100750.00;;;;5068868;28;20098;-75
2021/11/09 08:25:22;;;;;;;1999.90;999.90;;;;;10.80;100751.00;;;;5069711;28;20059;-75
2021/11/09 08:27:51;;;;;;;1247.82;576.30;;;;;10.70;100760.00;;;;5069260;28;20048;-75
2021/11/09 08:30:21;;;;;;;620.42;112.32;;;;;10.80;100753.00;;;;5069275;28;20037;-75
2021/11/09 08:32:52;;;;;;;1999.90;999.90;;;;;10.80;100746.00;;;;5069456;28;20048;-76
2021/11/09 08:35:25;;;;;;;408.58;55.50;;;;;10.90;100757.00;;;;5069464;28;20044;-75
2021/11/09 08:37:55;;;;;;;1999.90;999.90;;;;;10.90;100767.00;;;;5068998;28;20461;-74
2021/11/09 08:40:24;;;;;;;126.10;113.85;;;;;10.80;100755.00;;;;5069516;28;20507;-74
2021/11/09 08:42:57;;;;;;;1999.90;999.90;;;;;10.90;100768.00;;;;5069066;28;20102;-74
2021/11/09 08:45:40;;;;;;;68.45;50.42;;;;;10.90;100774.00;;;;5069220;28;20044;-74
2021/11/09 08:48:15;;;;;;;15.27;2.88;;;;;10.90;100776.00;;;;5068673;28;20054;-74
2021/11/09 08:50:49;;;;;;;11.05;2.40;;;;;10.90;100770.00;;;;5069005;28;20163;-75
2021/11/09 08:53:27;;;;;;;12.20;3.35;;;;;11.10;100766.00;;;;5068680;28;20048;-75
2021/11/09 09:04:27;;;;;;;1999.90;999.90;;;;;11.10;100793.00;;;;5069019;28;20040;-76
2021/11/09 09:07:01;;;;;;;6.60;3.40;;;;;11.20;100806.00;;;;5068910;28;20045;-74
2021/11/09 09:09:31;;;;;;;471.20;128.45;;;;;11.30;100791.00;;;;5068733;28;20039;-74
2021/11/09 09:12:01;;;;;;;1999.90;999.90;;;;;11.40;100789.00;;;;5068057;28;20052;-74
2021/11/09 09:14:31;;;;;;;1999.90;999.90;;;;;11.50;100812.00;;;;5068445;28;20529;-74
2021/11/09 09:17:02;;;;;;;1999.90;999.90;;;;;11.60;100803.00;;;;5067955;28;20033;-74
2021/11/09 09:19:41;;;;;;;14.55;4.88;;;;;11.80;100825.00;;;;5068261;28;20044;-75
2021/11/09 09:22:15;;;;;;;32.75;7.47;;;;;12.00;100823.00;;;;5068702;28;20048;-74
2021/11/09 09:27:48;;;;;;;17.90;3.90;;;;;12.30;100833.00;;;;5068341;28;20082;-75
2021/11/09 09:30:29;;;;;;;45.72;17.73;;;;;12.40;100823.00;;;;5068568;28;20067;-75
2021/11/09 09:52:07;;;;;;;79.55;51.35;;;;;12.40;100847.00;;;;5066732;28;20032;-75
2021/11/09 09:53:05;;;;;;;86.10;18.02;;;;;14.00;100881.00;;;;5067269;28;20141;-75
2021/11/09 09:55:40;;;;;;;17.10;3.60;;;;;13.90;100877.00;;;;5049896;28;20139;-76
2021/11/09 09:58:11;;;;;;;1052.15;176.52;;;;;14.00;100881.00;;;;5067633;28;20511;-73
2021/11/09 10:00:43;;;;;;;97.03;50.37;;;;;14.10;100868.00;;;;5067284;28;20119;-73
2021/11/09 10:03:13;;;;;;;18.88;2.85;;;;;15.00;100862.00;;;;5067645;28;20052;-73
2021/11/09 10:05:43;;;;;;;13.65;2.30;;;;;17.60;100684.00;;;;5067109;28;20522;-73
2021/11/09 10:08:16;;;;;;;13.73;2.58;;;;;22.10;100624.00;;;;5067441;28;20503;-74
2021/11/09 10:10:47;;;;;;;9.05;2.13;;;;;23.50;100604.00;;;;5066499;28;20044;-74
2021/11/09 10:13:23;;;;;;;21.50;4.05;;;;;24.10;100581.00;;;;5064024;28;20040;-74
2021/11/09 10:15:55;;;;;;;1608.22;90.82;;;;;24.30;100599.00;;;;5067844;28;20040;-74
2021/11/09 10:18:25;;;;;;;1999.90;374.05;;;;;24.30;100590.00;;;;5067189;28;20450;-76
2021/11/09 10:20:58;;;;;;;724.85;97.45;;;;;25.00;100581.00;;;;5067142;28;20506;-74
2021/11/09 10:23:31;;;;;;;1878.90;655.45;;;;;24.50;100590.00;;;;5066640;28;20120;-76
2021/11/09 10:26:14;;;;;;;1999.90;259.33;;;;;25.40;100604.00;;;;5066745;28;20045;-74
2021/11/09 10:28:46;;;;;;;1999.90;200.75;;;;;25.80;100606.00;;;;5067087;28;20044;-74
2021/11/09 10:31:16;;;;;;;754.92;63.72;;;;;23.70;100713.00;;;;5067266;28;20052;-74
2021/11/09 10:33:50;;;;;;;9.37;2.50;;;;;22.20;100768.00;;;;5066941;28;20448;-74
2021/11/09 10:36:35;;;;;;;19.30;3.50;;;;;22.70;100763.00;;;;5048230;28;20041;-74
2021/11/09 10:39:20;;;;;;;12.25;2.80;;;;;21.70;100772.00;;;;5066173;28;20113;-74
2021/11/09 10:42:10;;;;;;;14.75;2.95;;;;;25.90;100645.00;;;;5066713;28;20051;-74
2021/11/09 10:44:48;;;;;;;781.55;64.22;;;;;26.20;100613.00;;;;5067111;28;20044;-74
2021/11/09 10:47:23;;;;;;;11.05;3.05;;;;;26.60;100616.00;;;;5067199;28;20055;-74
2021/11/09 10:49:59;;;;;;;13.75;3.25;;;;;26.30;100600.00;;;;5067259;28;20036;-74
2021/11/09 10:52:37;;;;;;;12.73;2.95;;;;;26.60;100606.00;;;;5066437;28;20043;-74
2021/11/09 10:55:31;;;;;;;16.05;2.83;;;;;26.80;100633.00;;;;5066727;28;20052;-74
2021/11/09 10:58:17;;;;;;;14.20;3.28;;;;;26.90;100645.00;;;;5048534;28;20049;-74
2021/11/09 11:06:21;;;;;;;12.98;3.88;;;;;27.70;100672.00;;;;5066736;28;20503;-74
2021/11/09 11:09:01;;;;;;;11.18;3.03;;;;;27.40;100675.00;;;;5066756;28;20120;-75
2021/11/09 11:11:55;;;;;;;9.93;2.95;;;;;26.60;100648.00;;;;5066077;28;20166;-74
2021/11/09 11:14:31;;;;;;;14.85;3.33;;;;;27.10;100648.00;;;;5066789;28;20590;-74
2021/11/09 11:17:10;;;;;;;15.15;2.95;;;;;27.40;100638.00;;;;5066516;28;20491;-75
2021/11/09 11:19:43;;;;;;;27.02;11.20;;;;;26.60;100640.00;;;;5067001;28;20063;-75
2021/11/09 11:22:17;;;;;;;14.60;2.97;;;;;26.30;100636.00;;;;5066229;28;20152;-75
2021/11/09 11:24:55;;;;;;;15.35;3.05;;;;;26.40;100631.00;;;;5066795;28;20044;-74
2021/11/09 11:27:27;;;;;;;28.80;4.55;;;;;25.60;100619.00;;;;5066837;28;20841;-74
2021/11/09 11:29:59;;;;;;;12.55;2.90;;;;;25.90;100644.00;;;;5066410;28;20075;-74
2021/11/09 11:32:30;;;;;;;17.02;3.30;;;;;25.30;100629.00;;;;5066272;28;20043;-74
2021/11/09 11:35:00;;;;;;;10.55;2.60;;;;;25.20;100650.00;;;;5066382;28;20431;-74
2021/11/09 11:37:29;;;;;;;16.23;3.63;;;;;24.10;100713.00;;;;5065781;28;20437;-75
2021/11/09 11:40:04;;;;;;;13.88;3.10;;;;;24.00;100814.00;;;;5066898;28;20036;-74
2021/11/09 11:42:38;;;;;;;8.93;2.47;;;;;24.20;100812.00;;;;5066827;28;20083;-74
2021/11/09 11:45:09;;;;;;;23.90;4.32;;;;;23.30;100796.00;;;;5065678;28;20554;-75
2021/11/09 11:47:38;;;;;;;10.82;2.63;;;;;23.70;100808.00;;;;5067468;28;20051;-75
2021/11/09 11:50:13;;;;;;;8.40;2.08;;;;;23.00;100793.00;;;;5051799;28;20507;-74
2021/11/09 11:52:50;;;;;;;8.90;2.13;;;;;23.50;100788.00;;;;5052914;28;20044;-75
2021/11/09 11:55:26;;;;;;;16.52;6.78;;;;;23.10;100778.00;;;;5069820;28;20040;-74
2021/11/09 11:58:13;;;;;;;10.07;1.95;;;;;22.90;100799.00;;;;5069745;28;20279;-74
2021/11/09 12:00:58;;;;;;;9.95;2.00;;;;;22.20;100908.00;;;;5069846;28;20041;-74
2021/11/09 12:03:28;;;;;;;10.38;1.90;;;;;22.80;100805.00;;;;5051651;28;20136;-75
2021/11/09 12:06:15;;;;;;;6.07;1.88;;;;;23.00;100797.00;;;;5071047;28;20093;-74
2021/11/09 12:08:49;;;;;;;10.52;2.42;;;;;23.50;100873.00;;;;5069792;28;20052;-75
2021/11/09 12:11:26;;;;;;;12.07;2.08;;;;;23.20;100923.00;;;;5069806;28;20037;-75
2021/11/09 12:14:01;;;;;;;13.32;2.17;;;;;22.80;100791.00;;;;5069826;28;20048;-74
2021/11/09 12:16:52;;;;;;;5.10;1.50;;;;;24.40;100793.00;;;;5069407;28;21215;-75
2021/11/09 12:19:35;;;;;;;8.95;1.90;;;;;24.40;100797.00;;;;5069255;28;20044;-74
2021/11/09 12:22:11;;;;;;;20.30;2.15;;;;;24.20;100805.00;;;;5069364;28;20041;-75
2021/11/09 12:25:00;;;;;;;8.35;1.80;;;;;24.50;100803.00;;;;5068770;28;20131;-75
2021/11/09 12:27:56;;;;;;;4.67;1.37;;;;;24.30;100806.00;;;;5067210;28;20127;-75
2021/11/09 12:30:35;;;;;;;4.50;1.30;;;;;24.80;100814.00;;;;5069387;28;20286;-76
2021/11/09 12:33:17;;;;;;;8.48;1.75;;;;;25.00;100817.00;;;;5069713;28;20515;-75
2021/11/09 12:36:06;;;;;;;31.02;2.80;;;;;24.90;100818.00;;;;5069209;28;20157;-74
2021/11/09 12:38:38;;;;;;;10.43;1.50;;;;;24.30;100824.00;;;;5069471;28;20381;-74
2021/11/09 12:41:13;;;;;;;6.70;1.40;;;;;24.10;100832.00;;;;5069050;28;20522;-75
2021/11/09 12:43:55;;;;;;;8.10;1.98;;;;;24.80;100827.00;;;;5069042;28;20045;-74
2021/11/09 12:46:43;;;;;;;4.63;1.10;;;;;24.70;100807.00;;;;5069105;28;20503;-76
2021/11/09 12:49:22;;;;;;;5.63;1.48;;;;;23.80;100804.00;;;;5069181;28;20045;-74
2021/11/09 12:51:55;;;;;;;5.80;1.50;;;;;25.20;100816.00;;;;5069332;28;20044;-75
2021/11/09 12:54:29;;;;;;;6.63;1.10;;;;;25.40;100811.00;;;;5069033;28;20049;-75
2021/11/09 12:57:08;;;;;;;9.05;1.20;;;;;25.80;100820.00;;;;5069030;28;20519;-75
2021/11/09 12:59:54;;;;;;;5.00;1.20;;;;;25.90;100909.00;;;;5068719;28;20040;-75
2021/11/09 13:02:39;;;;;;;5.75;1.45;;;;;25.00;100899.00;;;;5068622;28;20040;-75
2021/11/09 13:05:24;;;;;;;7.43;1.20;;;;;26.00;100808.00;;;;5068914;28;20059;-76
2021/11/09 13:08:06;;;;;;;3.20;1.05;;;;;24.10;100816.00;;;;5068624;28;20044;-74
2021/11/09 13:10:39;;;;;;;6.85;1.33;;;;;24.20;100891.00;;;;5068497;28;20048;-75
2021/11/09 13:13:08;;;;;;;8.10;2.00;;;;;23.80;100889.00;;;;5068791;28;20044;-75
2021/11/09 13:15:38;;;;;;;8.30;1.67;;;;;24.70;100810.00;;;;5068416;28;20055;-75
2021/11/09 13:18:09;;;;;;;10.60;1.25;;;;;24.90;100809.00;;;;5069018;28;20048;-76
2021/11/09 13:20:49;;;;;;;7.60;1.42;;;;;25.30;100810.00;;;;5068725;28;20115;-75
2021/11/09 13:23:28;;;;;;;7.28;1.73;;;;;25.50;100823.00;;;;5068286;28;20517;-75
2021/11/09 13:25:59;;;;;;;8.45;1.50;;;;;26.00;100834.00;;;;5068680;28;20071;-75
2021/11/09 13:28:36;;;;;;;7.43;1.80;;;;;25.00;100899.00;;;;5068170;28;20056;-75
2021/11/09 13:31:12;;;;;;;11.55;1.25;;;;;23.60;100888.00;;;;5068663;28;20062;-75
2021/11/09 13:33:50;;;;;;;8.02;1.38;;;;;22.80;100896.00;;;;5068316;28;20036;-75
2021/11/09 13:36:24;;;;;;;10.32;2.53;;;;;23.10;100812.00;;;;5068261;28;20632;-75
2021/11/09 13:38:57;;;;;;;6.57;1.48;;;;;24.40;100797.00;;;;5049606;28;20476;-74
2021/11/09 13:41:33;;;;;;;13.48;1.63;;;;;25.20;100800.00;;;;5067773;28;20074;-75
2021/11/09 13:44:12;;;;;;;4.55;1.20;;;;;25.60;100799.00;;;;5068339;28;20334;-74
2021/11/09 13:46:44;;;;;;;8.75;1.30;;;;;25.50;100804.00;;;;5067427;28;20032;-75
2021/11/09 13:49:18;;;;;;;5.32;1.30;;;;;25.10;100793.00;;;;5068008;28;20059;-74
2021/11/09 13:51:58;;;;;;;4.07;1.10;;;;;25.60;100859.00;;;;5068293;28;20048;-75
2021/11/09 13:54:40;;;;;;;4.25;1.55;;;;;25.10;100784.00;;;;5067670;28;20097;-76
2021/11/09 13:57:10;;;;;;;5.90;1.50;;;;;25.60;100785.00;;;;5068395;28;20045;-75
2021/11/09 13:59:40;;;;;;;5.25;1.23;;;;;25.30;100801.00;;;;5067263;28;20419;-75
2021/11/09 14:02:30;;;;;;;6.40;1.55;;;;;25.70;100796.00;;;;5067612;28;20037;-76
2021/11/09 14:08:03;;;;;;;5.85;1.50;;;;;26.10;100775.00;;;;5065789;28;20527;-75
2021/11/09 14:18:34;;;;;;;23.00;2.08;;;;;26.30;100797.00;;;;5067636;28;20047;-75
2021/11/09 14:21:05;;;;;;;5.10;1.35;;;;;26.70;100781.00;;;;5067186;28;20495;-75
2021/11/09 14:23:41;;;;;;;4.40;1.20;;;;;26.10;100836.00;;;;5066732;28;20040;-75
2021/11/09 14:26:23;;;;;;;6.07;1.25;;;;;26.20;100781.00;;;;5067387;28;20071;-75
2021/11/09 14:28:57;;;;;;;3.42;0.80;;;;;26.40;100767.00;;;;5067222;28;20032;-75
2021/11/09 14:31:32;;;;;;;4.40;1.20;;;;;26.50;100772.00;;;;5067061;28;20481;-75
2021/11/09 14:34:20;;;;;;;4.28;1.20;;;;;25.80;100845.00;;;;5067182;28;20064;-75
2021/11/09 14:36:51;;;;;;;9.55;1.17;;;;;25.40;100757.00;;;;5048839;28;20049;-75
2021/11/09 14:39:24;;;;;;;3.23;1.40;;;;;26.40;100760.00;;;;5066958;28;20063;-77